sensor_id;sensor_type;location;lat;lon;timestamp;temperature;humidity
29539;DHT22;16482;51.046;4.498;2023-03-23T00:01:56;24.00;40.10
29539;DHT22;16482;51.046;4.498;2023-03-23T00:04:25;24.00;40.10
29539;DHT22;16482;51.046;4.498;2023-03-23T00:06:59;24.00;40.10
29539;DHT22;16482;51.046;4.498;2023-03-23T00:09:28;24.00;40.10
29539;DHT22;16482;51.046;4.498;2023-03-23T00:11:57;24.00;40.10
29539;DHT22;16482;51.046;4.498;2023-03-23T00:14:32;24.00;40.10
29539;DHT22;16482;51.046;4.498;2023-03-23T00:17:09;24.00;40.00
29539;DHT22;16482;51.046;4.498;2023-03-23T00:19:37;24.00;40.10
29539;DHT22;16482;51.046;4.498;2023-03-23T00:22:14;24.00;40.10
29539;DHT22;16482;51.046;4.498;2023-03-23T00:24:41;24.00;40.00
29539;DHT22;16482;51.046;4.498;2023-03-23T00:27:07;23.90;40.10
29539;DHT22;16482;51.046;4.498;2023-03-23T00:29:34;24.00;40.10
29539;DHT22;16482;51.046;4.498;2023-03-23T00:32:00;24.00;40.10
29539;DHT22;16482;51.046;4.498;2023-03-23T00:34:27;24.00;40.10
29539;DHT22;16482;51.046;4.498;2023-03-23T00:36:58;23.90;40.00
29539;DHT22;16482;51.046;4.498;2023-03-23T00:39:27;24.00;40.00
29539;DHT22;16482;51.046;4.498;2023-03-23T00:41:56;24.00;40.00
29539;DHT22;16482;51.046;4.498;2023-03-23T00:44:29;24.00;40.10
29539;DHT22;16482;51.046;4.498;2023-03-23T00:46:56;23.90;40.00
29539;DHT22;16482;51.046;4.498;2023-03-23T00:49:31;24.00;40.10
29539;DHT22;16482;51.046;4.498;2023-03-23T00:52:01;24.00;40.10
29539;DHT22;16482;51.046;4.498;2023-03-23T00:54:27;24.00;40.10
29539;DHT22;16482;51.046;4.498;2023-03-23T00:56:55;23.90;40.10
29539;DHT22;16482;51.046;4.498;2023-03-23T00:59:30;23.90;40.10
29539;DHT22;16482;51.046;4.498;2023-03-23T01:01:56;23.90;40.10
29539;DHT22;16482;51.046;4.498;2023-03-23T01:04:25;23.90;40.20
29539;DHT22;16482;51.046;4.498;2023-03-23T01:06:56;23.90;40.20
29539;DHT22;16482;51.046;4.498;2023-03-23T01:09:24;23.90;40.20
29539;DHT22;16482;51.046;4.498;2023-03-23T01:12:01;23.90;40.10
29539;DHT22;16482;51.046;4.498;2023-03-23T01:14:27;23.90;40.20
29539;DHT22;16482;51.046;4.498;2023-03-23T01:16:55;23.90;40.20
29539;DHT22;16482;51.046;4.498;2023-03-23T01:19:25;23.90;40.10
29539;DHT22;16482;51.046;4.498;2023-03-23T01:21:59;23.90;40.20
29539;DHT22;16482;51.046;4.498;2023-03-23T01:24:25;23.90;40.10
29539;DHT22;16482;51.046;4.498;2023-03-23T01:26:54;23.80;40.10
29539;DHT22;16482;51.046;4.498;2023-03-23T01:29:27;23.80;40.10
29539;DHT22;16482;51.046;4.498;2023-03-23T01:31:58;23.80;40.10
29539;DHT22;16482;51.046;4.498;2023-03-23T01:34:27;23.80;40.10
29539;DHT22;16482;51.046;4.498;2023-03-23T01:36:55;23.80;40.10
29539;DHT22;16482;51.046;4.498;2023-03-23T01:39:24;23.80;40.10
29539;DHT22;16482;51.046;4.498;2023-03-23T01:41:59;23.80;40.20
29539;DHT22;16482;51.046;4.498;2023-03-23T01:46:57;23.80;40.20
29539;DHT22;16482;51.046;4.498;2023-03-23T01:49:31;23.80;40.20
29539;DHT22;16482;51.046;4.498;2023-03-23T01:52:05;23.80;40.20
29539;DHT22;16482;51.046;4.498;2023-03-23T01:54:35;23.80;40.20
29539;DHT22;16482;51.046;4.498;2023-03-23T01:57:14;23.80;40.20
29539;DHT22;16482;51.046;4.498;2023-03-23T01:59:43;23.80;40.20
29539;DHT22;16482;51.046;4.498;2023-03-23T02:02:11;23.80;40.30
29539;DHT22;16482;51.046;4.498;2023-03-23T02:04:38;23.80;40.30
29539;DHT22;16482;51.046;4.498;2023-03-23T02:07:04;23.80;40.20
29539;DHT22;16482;51.046;4.498;2023-03-23T02:09:31;23.80;40.30
29539;DHT22;16482;51.046;4.498;2023-03-23T02:11:57;23.80;40.30
29539;DHT22;16482;51.046;4.498;2023-03-23T02:14:27;23.80;40.30
29539;DHT22;16482;51.046;4.498;2023-03-23T02:20:33;23.80;40.20
29539;DHT22;16482;51.046;4.498;2023-03-23T02:22:52;23.80;40.20
29539;DHT22;16482;51.046;4.498;2023-03-23T02:34:08;23.80;40.20
29539;DHT22;16482;51.046;4.498;2023-03-23T02:37:09;23.80;40.20
29539;DHT22;16482;51.046;4.498;2023-03-23T02:39:54;23.70;40.20
29539;DHT22;16482;51.046;4.498;2023-03-23T02:42:26;23.70;40.20
29539;DHT22;16482;51.046;4.498;2023-03-23T02:44:53;23.70;40.20
29539;DHT22;16482;51.046;4.498;2023-03-23T02:47:23;23.70;40.20
29539;DHT22;16482;51.046;4.498;2023-03-23T02:49:52;23.70;40.10
29539;DHT22;16482;51.046;4.498;2023-03-23T02:52:26;23.70;40.10
29539;DHT22;16482;51.046;4.498;2023-03-23T02:54:54;23.70;40.10
29539;DHT22;16482;51.046;4.498;2023-03-23T02:57:22;23.70;40.10
29539;DHT22;16482;51.046;4.498;2023-03-23T02:59:49;23.70;40.10
29539;DHT22;16482;51.046;4.498;2023-03-23T03:02:25;23.70;40.10
29539;DHT22;16482;51.046;4.498;2023-03-23T03:13:14;23.70;40.00
29539;DHT22;16482;51.046;4.498;2023-03-23T03:21:22;23.70;40.00
29539;DHT22;16482;51.046;4.498;2023-03-23T03:23:54;23.70;40.00
29539;DHT22;16482;51.046;4.498;2023-03-23T03:26:22;23.70;40.00
29539;DHT22;16482;51.046;4.498;2023-03-23T03:28:52;23.70;40.00
29539;DHT22;16482;51.046;4.498;2023-03-23T03:31:26;23.70;40.00
29539;DHT22;16482;51.046;4.498;2023-03-23T03:33:53;23.70;39.90
29539;DHT22;16482;51.046;4.498;2023-03-23T03:36:26;23.70;40.00
29539;DHT22;16482;51.046;4.498;2023-03-23T03:38:53;23.70;39.90
29539;DHT22;16482;51.046;4.498;2023-03-23T03:41:22;23.70;40.00
29539;DHT22;16482;51.046;4.498;2023-03-23T03:43:48;23.70;39.90
29539;DHT22;16482;51.046;4.498;2023-03-23T03:46:14;23.70;39.90
29539;DHT22;16482;51.046;4.498;2023-03-23T03:48:40;23.70;39.90
29539;DHT22;16482;51.046;4.498;2023-03-23T03:51:06;23.70;39.90
29539;DHT22;16482;51.046;4.498;2023-03-23T03:53:37;23.70;39.80
29539;DHT22;16482;51.046;4.498;2023-03-23T03:56:05;23.70;39.70
29539;DHT22;16482;51.046;4.498;2023-03-23T03:58:42;23.70;39.90
29539;DHT22;16482;51.046;4.498;2023-03-23T04:01:09;23.70;39.70
29539;DHT22;16482;51.046;4.498;2023-03-23T04:03:39;23.70;39.80
29539;DHT22;16482;51.046;4.498;2023-03-23T04:06:08;23.70;39.80
29539;DHT22;16482;51.046;4.498;2023-03-23T04:08:36;23.70;39.70
29539;DHT22;16482;51.046;4.498;2023-03-23T04:11:07;23.70;39.70
29539;DHT22;16482;51.046;4.498;2023-03-23T04:13:42;23.70;39.70
29539;DHT22;16482;51.046;4.498;2023-03-23T04:16:08;23.70;39.70
29539;DHT22;16482;51.046;4.498;2023-03-23T04:18:42;23.60;39.60
29539;DHT22;16482;51.046;4.498;2023-03-23T04:21:08;23.70;39.70
29539;DHT22;16482;51.046;4.498;2023-03-23T04:23:35;23.70;39.70
29539;DHT22;16482;51.046;4.498;2023-03-23T04:26:09;23.60;39.60
29539;DHT22;16482;51.046;4.498;2023-03-23T04:28:39;23.70;39.60
29539;DHT22;16482;51.046;4.498;2023-03-23T04:31:07;23.60;39.60
29539;DHT22;16482;51.046;4.498;2023-03-23T04:33:34;23.70;39.60
29539;DHT22;16482;51.046;4.498;2023-03-23T04:36:11;23.60;39.50
29539;DHT22;16482;51.046;4.498;2023-03-23T04:38:37;23.60;39.50
29539;DHT22;16482;51.046;4.498;2023-03-23T04:41:06;23.60;39.60
29539;DHT22;16482;51.046;4.498;2023-03-23T04:43:40;23.60;39.50
29539;DHT22;16482;51.046;4.498;2023-03-23T04:46:09;23.60;39.50
29539;DHT22;16482;51.046;4.498;2023-03-23T04:48:38;23.60;39.60
29539;DHT22;16482;51.046;4.498;2023-03-23T04:51:07;23.60;39.50
29539;DHT22;16482;51.046;4.498;2023-03-23T04:53:36;23.60;39.50
29539;DHT22;16482;51.046;4.498;2023-03-23T04:56:04;23.60;39.40
29539;DHT22;16482;51.046;4.498;2023-03-23T04:58:42;23.70;39.50
29539;DHT22;16482;51.046;4.498;2023-03-23T05:01:09;23.60;39.40
29539;DHT22;16482;51.046;4.498;2023-03-23T05:03:37;23.60;39.50
29539;DHT22;16482;51.046;4.498;2023-03-23T05:06:06;23.60;39.40
29539;DHT22;16482;51.046;4.498;2023-03-23T05:08:35;23.60;39.30
29539;DHT22;16482;51.046;4.498;2023-03-23T05:11:07;23.60;39.30
29539;DHT22;16482;51.046;4.498;2023-03-23T05:13:36;23.60;39.30
29539;DHT22;16482;51.046;4.498;2023-03-23T05:16:05;23.60;39.40
29539;DHT22;16482;51.046;4.498;2023-03-23T05:18:35;23.60;39.40
29539;DHT22;16482;51.046;4.498;2023-03-23T05:21:05;23.60;39.40
29539;DHT22;16482;51.046;4.498;2023-03-23T05:23:40;23.60;39.40
29539;DHT22;16482;51.046;4.498;2023-03-23T05:26:06;23.60;39.30
29539;DHT22;16482;51.046;4.498;2023-03-23T05:28:35;23.60;39.30
29539;DHT22;16482;51.046;4.498;2023-03-23T05:31:10;23.60;39.30
29539;DHT22;16482;51.046;4.498;2023-03-23T05:33:36;23.60;39.30
29539;DHT22;16482;51.046;4.498;2023-03-23T05:36:06;23.60;39.20
29539;DHT22;16482;51.046;4.498;2023-03-23T05:38:36;23.60;39.20
29539;DHT22;16482;51.046;4.498;2023-03-23T05:41:06;23.60;39.20
29539;DHT22;16482;51.046;4.498;2023-03-23T05:43:35;23.60;39.20
29539;DHT22;16482;51.046;4.498;2023-03-23T05:46:08;23.60;39.30
29539;DHT22;16482;51.046;4.498;2023-03-23T05:48:37;23.60;39.20
29539;DHT22;16482;51.046;4.498;2023-03-23T05:51:06;23.60;39.20
29539;DHT22;16482;51.046;4.498;2023-03-23T05:53:37;23.60;39.20
29539;DHT22;16482;51.046;4.498;2023-03-23T05:56:06;23.60;39.20
29539;DHT22;16482;51.046;4.498;2023-03-23T05:58:35;23.60;39.20
29539;DHT22;16482;51.046;4.498;2023-03-23T06:01:09;23.60;39.20
29539;DHT22;16482;51.046;4.498;2023-03-23T06:03:35;23.50;39.10
29539;DHT22;16482;51.046;4.498;2023-03-23T06:06:10;23.50;39.20
29539;DHT22;16482;51.046;4.498;2023-03-23T06:08:37;23.60;39.20
29539;DHT22;16482;51.046;4.498;2023-03-23T06:11:06;23.60;39.20
29539;DHT22;16482;51.046;4.498;2023-03-23T06:13:39;23.50;39.20
29539;DHT22;16482;51.046;4.498;2023-03-23T06:16:13;23.50;39.10
29539;DHT22;16482;51.046;4.498;2023-03-23T06:18:39;23.50;39.10
29539;DHT22;16482;51.046;4.498;2023-03-23T06:21:09;23.50;39.20
29539;DHT22;16482;51.046;4.498;2023-03-23T06:23:37;23.60;39.20
29539;DHT22;16482;51.046;4.498;2023-03-23T06:26:13;23.60;39.90
29539;DHT22;16482;51.046;4.498;2023-03-23T06:28:42;23.60;39.20
29539;DHT22;16482;51.046;4.498;2023-03-23T06:31:08;23.50;39.20
29539;DHT22;16482;51.046;4.498;2023-03-23T06:33:37;23.60;39.20
29539;DHT22;16482;51.046;4.498;2023-03-23T06:36:04;23.60;39.20
29539;DHT22;16482;51.046;4.498;2023-03-23T06:38:41;23.60;39.10
29539;DHT22;16482;51.046;4.498;2023-03-23T06:41:07;23.70;39.10
29539;DHT22;16482;51.046;4.498;2023-03-23T06:43:37;23.70;39.00
29539;DHT22;16482;51.046;4.498;2023-03-23T06:46:07;23.80;39.00
29539;DHT22;16482;51.046;4.498;2023-03-23T06:48:36;23.80;38.80
29539;DHT22;16482;51.046;4.498;2023-03-23T06:51:11;23.90;38.80
29539;DHT22;16482;51.046;4.498;2023-03-23T06:53:36;24.00;38.70
29539;DHT22;16482;51.046;4.498;2023-03-23T06:56:11;24.00;38.70
29539;DHT22;16482;51.046;4.498;2023-03-23T06:58:38;24.00;38.70
29539;DHT22;16482;51.046;4.498;2023-03-23T07:01:05;24.00;38.70
29539;DHT22;16482;51.046;4.498;2023-03-23T07:03:40;24.10;38.60
29539;DHT22;16482;51.046;4.498;2023-03-23T07:06:07;24.10;38.50
29539;DHT22;16482;51.046;4.498;2023-03-23T07:08:40;24.10;38.40
29539;DHT22;16482;51.046;4.498;2023-03-23T07:11:06;24.10;38.40
29539;DHT22;16482;51.046;4.498;2023-03-23T07:13:36;24.20;38.40
29539;DHT22;16482;51.046;4.498;2023-03-23T07:16:11;24.20;38.40
29539;DHT22;16482;51.046;4.498;2023-03-23T07:18:36;24.20;38.30
29539;DHT22;16482;51.046;4.498;2023-03-23T07:21:11;24.20;38.30
29539;DHT22;16482;51.046;4.498;2023-03-23T07:23:40;24.30;38.30
29539;DHT22;16482;51.046;4.498;2023-03-23T07:26:07;24.20;38.30
29539;DHT22;16482;51.046;4.498;2023-03-23T07:28:42;24.30;38.30
29539;DHT22;16482;51.046;4.498;2023-03-23T07:31:08;24.30;38.30
29539;DHT22;16482;51.046;4.498;2023-03-23T07:33:37;24.30;38.30
29539;DHT22;16482;51.046;4.498;2023-03-23T07:36:06;24.30;38.30
29539;DHT22;16482;51.046;4.498;2023-03-23T07:38:40;24.30;38.30
29539;DHT22;16482;51.046;4.498;2023-03-23T07:41:06;24.30;38.30
29539;DHT22;16482;51.046;4.498;2023-03-23T07:43:41;24.30;38.30
29539;DHT22;16482;51.046;4.498;2023-03-23T07:46:08;24.40;38.30
29539;DHT22;16482;51.046;4.498;2023-03-23T07:48:41;24.30;38.30
29539;DHT22;16482;51.046;4.498;2023-03-23T07:51:07;24.40;38.20
29539;DHT22;16482;51.046;4.498;2023-03-23T07:53:36;24.30;38.20
29539;DHT22;16482;51.046;4.498;2023-03-23T07:56:09;24.40;38.20
29539;DHT22;16482;51.046;4.498;2023-03-23T07:58:37;24.40;38.20
29539;DHT22;16482;51.046;4.498;2023-03-23T08:01:05;24.40;38.10
29539;DHT22;16482;51.046;4.498;2023-03-23T08:03:34;24.40;38.10
29539;DHT22;16482;51.046;4.498;2023-03-23T08:06:08;24.40;38.20
29539;DHT22;16482;51.046;4.498;2023-03-23T08:08:36;24.40;38.00
29539;DHT22;16482;51.046;4.498;2023-03-23T08:11:06;24.50;38.80
29539;DHT22;16482;51.046;4.498;2023-03-23T08:13:44;24.40;38.00
29539;DHT22;16482;51.046;4.498;2023-03-23T08:16:10;24.50;38.00
29539;DHT22;16482;51.046;4.498;2023-03-23T08:18:38;24.40;38.00
29539;DHT22;16482;51.046;4.498;2023-03-23T08:21:07;24.50;38.00
29539;DHT22;16482;51.046;4.498;2023-03-23T08:23:42;24.50;38.10
29539;DHT22;16482;51.046;4.498;2023-03-23T08:26:08;24.50;38.00
29539;DHT22;16482;51.046;4.498;2023-03-23T08:28:37;24.40;38.00
29539;DHT22;16482;51.046;4.498;2023-03-23T08:31:08;24.50;38.00
29539;DHT22;16482;51.046;4.498;2023-03-23T08:33:38;24.50;38.00
29539;DHT22;16482;51.046;4.498;2023-03-23T08:36:05;24.40;37.90
29539;DHT22;16482;51.046;4.498;2023-03-23T08:38:35;24.40;37.90
29539;DHT22;16482;51.046;4.498;2023-03-23T08:41:09;24.50;38.10
29539;DHT22;16482;51.046;4.498;2023-03-23T08:43:38;24.40;38.00
29539;DHT22;16482;51.046;4.498;2023-03-23T08:46:07;24.40;38.10
29539;DHT22;16482;51.046;4.498;2023-03-23T08:48:38;24.40;38.10
29539;DHT22;16482;51.046;4.498;2023-03-23T08:51:07;24.40;38.10
29539;DHT22;16482;51.046;4.498;2023-03-23T08:53:36;24.40;38.20
29539;DHT22;16482;51.046;4.498;2023-03-23T08:56:11;24.30;38.20
29539;DHT22;16482;51.046;4.498;2023-03-23T08:58:38;24.40;38.20
29539;DHT22;16482;51.046;4.498;2023-03-23T09:01:08;24.30;38.30
29539;DHT22;16482;51.046;4.498;2023-03-23T09:03:35;24.40;38.30
29539;DHT22;16482;51.046;4.498;2023-03-23T09:06:09;24.40;38.90
29539;DHT22;16482;51.046;4.498;2023-03-23T09:08:37;24.30;38.40
29539;DHT22;16482;51.046;4.498;2023-03-23T09:11:08;24.30;38.40
29539;DHT22;16482;51.046;4.498;2023-03-23T09:13:38;24.30;38.40
29539;DHT22;16482;51.046;4.498;2023-03-23T09:16:11;24.30;38.50
29539;DHT22;16482;51.046;4.498;2023-03-23T09:18:37;24.30;38.60
29539;DHT22;16482;51.046;4.498;2023-03-23T09:21:06;24.20;38.60
29539;DHT22;16482;51.046;4.498;2023-03-23T09:23:41;24.20;38.70
29539;DHT22;16482;51.046;4.498;2023-03-23T09:26:09;24.30;38.80
29539;DHT22;16482;51.046;4.498;2023-03-23T09:28:35;24.20;39.00
29539;DHT22;16482;51.046;4.498;2023-03-23T09:31:09;24.30;38.80
29539;DHT22;16482;51.046;4.498;2023-03-23T09:33:37;24.20;38.70
29539;DHT22;16482;51.046;4.498;2023-03-23T09:36:12;24.20;38.70
29539;DHT22;16482;51.046;4.498;2023-03-23T09:38:40;24.20;38.70
29539;DHT22;16482;51.046;4.498;2023-03-23T09:41:36;24.20;38.70
29539;DHT22;16482;51.046;4.498;2023-03-23T09:46:50;24.30;38.90
29539;DHT22;16482;51.046;4.498;2023-03-23T09:52:21;24.20;38.70
29539;DHT22;16482;51.046;4.498;2023-03-23T09:54:50;24.20;38.80
29539;DHT22;16482;51.046;4.498;2023-03-23T10:05:42;24.20;39.00
29539;DHT22;16482;51.046;4.498;2023-03-23T10:08:22;24.20;39.10
29539;DHT22;16482;51.046;4.498;2023-03-23T10:16:39;24.30;39.30
29539;DHT22;16482;51.046;4.498;2023-03-23T10:19:11;24.20;39.40
29539;DHT22;16482;51.046;4.498;2023-03-23T10:21:41;24.20;39.50
29539;DHT22;16482;51.046;4.498;2023-03-23T10:24:10;24.20;39.60
29539;DHT22;16482;51.046;4.498;2023-03-23T10:26:45;24.20;39.60
29539;DHT22;16482;51.046;4.498;2023-03-23T10:32:17;24.20;39.70
29539;DHT22;16482;51.046;4.498;2023-03-23T10:34:56;24.30;39.90
29539;DHT22;16482;51.046;4.498;2023-03-23T10:37:29;24.30;40.00
29539;DHT22;16482;51.046;4.498;2023-03-23T10:40:00;24.20;40.00
29539;DHT22;16482;51.046;4.498;2023-03-23T10:42:34;24.30;40.00
29539;DHT22;16482;51.046;4.498;2023-03-23T10:50:23;24.20;40.10
29539;DHT22;16482;51.046;4.498;2023-03-23T10:52:52;24.20;40.20
29539;DHT22;16482;51.046;4.498;2023-03-23T10:55:21;24.20;40.20
29539;DHT22;16482;51.046;4.498;2023-03-23T10:58:07;24.20;40.90
29539;DHT22;16482;51.046;4.498;2023-03-23T11:00:41;24.30;40.30
29539;DHT22;16482;51.046;4.498;2023-03-23T11:03:41;24.20;40.30
29539;DHT22;16482;51.046;4.498;2023-03-23T11:06:29;24.20;40.30
29539;DHT22;16482;51.046;4.498;2023-03-23T11:08:58;24.10;40.40
29539;DHT22;16482;51.046;4.498;2023-03-23T11:11:30;24.10;40.60
29539;DHT22;16482;51.046;4.498;2023-03-23T11:14:12;24.20;40.60
29539;DHT22;16482;51.046;4.498;2023-03-23T11:16:44;24.10;40.60
29539;DHT22;16482;51.046;4.498;2023-03-23T11:19:15;24.20;40.60
29539;DHT22;16482;51.046;4.498;2023-03-23T11:22:08;24.10;40.50
29539;DHT22;16482;51.046;4.498;2023-03-23T11:24:41;24.20;40.50
29539;DHT22;16482;51.046;4.498;2023-03-23T11:27:09;24.20;40.40
29539;DHT22;16482;51.046;4.498;2023-03-23T11:29:43;24.10;40.40
29539;DHT22;16482;51.046;4.498;2023-03-23T11:32:14;24.20;40.40
29539;DHT22;16482;51.046;4.498;2023-03-23T11:34:45;24.20;40.40
29539;DHT22;16482;51.046;4.498;2023-03-23T11:40:19;24.20;40.60
29539;DHT22;16482;51.046;4.498;2023-03-23T11:42:47;24.10;40.50
29539;DHT22;16482;51.046;4.498;2023-03-23T11:45:27;24.10;40.60
29539;DHT22;16482;51.046;4.498;2023-03-23T11:48:06;24.10;40.70
29539;DHT22;16482;51.046;4.498;2023-03-23T11:50:51;24.10;40.70
29539;DHT22;16482;51.046;4.498;2023-03-23T11:53:41;24.10;40.80
29539;DHT22;16482;51.046;4.498;2023-03-23T11:56:15;24.00;40.80
29539;DHT22;16482;51.046;4.498;2023-03-23T11:58:42;24.10;40.90
29539;DHT22;16482;51.046;4.498;2023-03-23T12:20:36;24.10;40.90
29539;DHT22;16482;51.046;4.498;2023-03-23T12:23:28;24.20;40.80
29539;DHT22;16482;51.046;4.498;2023-03-23T12:26:28;24.30;40.90
29539;DHT22;16482;51.046;4.498;2023-03-23T12:34:56;24.30;41.50
29539;DHT22;16482;51.046;4.498;2023-03-23T12:37:51;24.30;41.70
29539;DHT22;16482;51.046;4.498;2023-03-23T12:40:22;24.30;41.80
29539;DHT22;16482;51.046;4.498;2023-03-23T12:43:20;24.20;41.80
29539;DHT22;16482;51.046;4.498;2023-03-23T12:48:46;24.30;41.50
29539;DHT22;16482;51.046;4.498;2023-03-23T12:51:18;24.40;41.40
29539;DHT22;16482;51.046;4.498;2023-03-23T12:53:58;24.40;41.10
29539;DHT22;16482;51.046;4.498;2023-03-23T12:59:49;24.40;40.90
29539;DHT22;16482;51.046;4.498;2023-03-23T13:02:30;24.40;41.00
29539;DHT22;16482;51.046;4.498;2023-03-23T13:05:05;24.40;41.20
29539;DHT22;16482;51.046;4.498;2023-03-23T13:07:33;24.40;41.20
29539;DHT22;16482;51.046;4.498;2023-03-23T13:10:12;24.40;41.00
29539;DHT22;16482;51.046;4.498;2023-03-23T13:12:48;24.40;41.30
29539;DHT22;16482;51.046;4.498;2023-03-23T13:23:42;24.40;41.20
29539;DHT22;16482;51.046;4.498;2023-03-23T13:26:14;24.40;41.20
29539;DHT22;16482;51.046;4.498;2023-03-23T13:28:57;24.40;41.20
29539;DHT22;16482;51.046;4.498;2023-03-23T13:33:58;24.40;41.20
29539;DHT22;16482;51.046;4.498;2023-03-23T13:36:39;24.40;41.10
29539;DHT22;16482;51.046;4.498;2023-03-23T13:39:20;24.50;41.10
29539;DHT22;16482;51.046;4.498;2023-03-23T13:42:01;24.40;41.10
29539;DHT22;16482;51.046;4.498;2023-03-23T13:47:26;24.40;41.00
29539;DHT22;16482;51.046;4.498;2023-03-23T13:49:56;24.50;40.60
29539;DHT22;16482;51.046;4.498;2023-03-23T13:52:36;24.50;40.60
29539;DHT22;16482;51.046;4.498;2023-03-23T13:55:19;24.50;40.70
29539;DHT22;16482;51.046;4.498;2023-03-23T14:00:45;24.50;40.80
29539;DHT22;16482;51.046;4.498;2023-03-23T14:11:15;24.40;40.90
29539;DHT22;16482;51.046;4.498;2023-03-23T14:13:59;24.40;40.90
29539;DHT22;16482;51.046;4.498;2023-03-23T14:19:03;24.30;40.80
29539;DHT22;16482;51.046;4.498;2023-03-23T14:21:37;24.30;40.90
29539;DHT22;16482;51.046;4.498;2023-03-23T14:24:11;24.30;40.80
29539;DHT22;16482;51.046;4.498;2023-03-23T14:26:38;24.30;40.70
29539;DHT22;16482;51.046;4.498;2023-03-23T14:29:05;24.30;40.80
29539;DHT22;16482;51.046;4.498;2023-03-23T14:31:31;24.30;40.60
29539;DHT22;16482;51.046;4.498;2023-03-23T14:34:03;24.30;40.60
29539;DHT22;16482;51.046;4.498;2023-03-23T14:36:30;24.30;40.60
29539;DHT22;16482;51.046;4.498;2023-03-23T14:41:29;24.30;40.50
29539;DHT22;16482;51.046;4.498;2023-03-23T14:43:56;24.20;40.50
29539;DHT22;16482;51.046;4.498;2023-03-23T14:46:22;24.30;40.40
29539;DHT22;16482;51.046;4.498;2023-03-23T14:48:49;24.20;40.30
29539;DHT22;16482;51.046;4.498;2023-03-23T14:51:18;24.20;40.30
29539;DHT22;16482;51.046;4.498;2023-03-23T14:53:45;24.20;40.30
29539;DHT22;16482;51.046;4.498;2023-03-23T14:56:34;24.20;40.30
29539;DHT22;16482;51.046;4.498;2023-03-23T14:59:05;24.20;40.20
29539;DHT22;16482;51.046;4.498;2023-03-23T15:01:35;24.20;40.20
29539;DHT22;16482;51.046;4.498;2023-03-23T15:04:18;24.20;40.10
29539;DHT22;16482;51.046;4.498;2023-03-23T15:06:52;24.20;40.00
29539;DHT22;16482;51.046;4.498;2023-03-23T15:09:28;24.20;40.10
29539;DHT22;16482;51.046;4.498;2023-03-23T15:12:01;24.10;40.00
29539;DHT22;16482;51.046;4.498;2023-03-23T15:14:32;24.20;40.00
29539;DHT22;16482;51.046;4.498;2023-03-23T15:17:00;24.20;40.00
29539;DHT22;16482;51.046;4.498;2023-03-23T15:19:32;24.20;40.00
29539;DHT22;16482;51.046;4.498;2023-03-23T15:24:46;24.20;40.00
29539;DHT22;16482;51.046;4.498;2023-03-23T15:27:30;24.10;40.00
29539;DHT22;16482;51.046;4.498;2023-03-23T15:29:58;24.10;39.90
29539;DHT22;16482;51.046;4.498;2023-03-23T15:32:39;24.10;39.90
29539;DHT22;16482;51.046;4.498;2023-03-23T15:35:19;24.10;39.90
29539;DHT22;16482;51.046;4.498;2023-03-23T15:37:56;24.10;40.00
29539;DHT22;16482;51.046;4.498;2023-03-23T15:40:24;24.10;39.90
29539;DHT22;16482;51.046;4.498;2023-03-23T15:43:15;24.10;40.00
29539;DHT22;16482;51.046;4.498;2023-03-23T15:48:22;24.10;40.00
29539;DHT22;16482;51.046;4.498;2023-03-23T15:50:49;24.10;40.10
29539;DHT22;16482;51.046;4.498;2023-03-23T15:53:31;24.10;40.00
29539;DHT22;16482;51.046;4.498;2023-03-23T15:56:11;24.10;40.00
29539;DHT22;16482;51.046;4.498;2023-03-23T15:58:38;24.00;40.00
29539;DHT22;16482;51.046;4.498;2023-03-23T16:01:27;24.00;40.00
29539;DHT22;16482;51.046;4.498;2023-03-23T16:06:23;24.00;40.10
29539;DHT22;16482;51.046;4.498;2023-03-23T16:08:50;24.00;40.00
29539;DHT22;16482;51.046;4.498;2023-03-23T16:11:17;24.00;40.00
29539;DHT22;16482;51.046;4.498;2023-03-23T16:13:44;24.00;40.00
29539;DHT22;16482;51.046;4.498;2023-03-23T16:16:24;24.00;40.00
29539;DHT22;16482;51.046;4.498;2023-03-23T16:18:51;24.00;40.10
29539;DHT22;16482;51.046;4.498;2023-03-23T16:21:17;24.00;40.20
29539;DHT22;16482;51.046;4.498;2023-03-23T16:23:43;24.00;40.30
29539;DHT22;16482;51.046;4.498;2023-03-23T16:26:11;24.00;40.30
29539;DHT22;16482;51.046;4.498;2023-03-23T16:28:37;24.00;40.40
29539;DHT22;16482;51.046;4.498;2023-03-23T16:31:06;23.90;40.50
29539;DHT22;16482;51.046;4.498;2023-03-23T16:33:41;23.90;40.60
29539;DHT22;16482;51.046;4.498;2023-03-23T16:36:09;23.90;40.60
29539;DHT22;16482;51.046;4.498;2023-03-23T16:38:38;23.90;40.50
29539;DHT22;16482;51.046;4.498;2023-03-23T16:41:09;23.90;40.40
29539;DHT22;16482;51.046;4.498;2023-03-23T16:43:43;23.90;40.40
29539;DHT22;16482;51.046;4.498;2023-03-23T16:46:11;24.00;40.40
29539;DHT22;16482;51.046;4.498;2023-03-23T16:48:37;24.00;40.30
29539;DHT22;16482;51.046;4.498;2023-03-23T16:51:06;24.00;40.40
29539;DHT22;16482;51.046;4.498;2023-03-23T16:53:50;24.00;40.30
29539;DHT22;16482;51.046;4.498;2023-03-23T16:56:15;24.00;40.20
29539;DHT22;16482;51.046;4.498;2023-03-23T16:58:41;24.00;40.30
29539;DHT22;16482;51.046;4.498;2023-03-23T17:01:07;23.90;40.20
29539;DHT22;16482;51.046;4.498;2023-03-23T17:03:42;23.90;40.30
29539;DHT22;16482;51.046;4.498;2023-03-23T17:06:10;24.00;40.30
29539;DHT22;16482;51.046;4.498;2023-03-23T17:08:39;24.00;40.20
29539;DHT22;16482;51.046;4.498;2023-03-23T17:11:09;24.00;40.20
29539;DHT22;16482;51.046;4.498;2023-03-23T17:13:38;24.00;40.10
29539;DHT22;16482;51.046;4.498;2023-03-23T17:16:13;24.00;40.10
29539;DHT22;16482;51.046;4.498;2023-03-23T17:18:39;24.00;40.00
29539;DHT22;16482;51.046;4.498;2023-03-23T17:21:08;24.00;40.10
29539;DHT22;16482;51.046;4.498;2023-03-23T17:23:36;24.00;40.00
29539;DHT22;16482;51.046;4.498;2023-03-23T17:26:10;24.00;40.00
29539;DHT22;16482;51.046;4.498;2023-03-23T17:28:43;24.00;40.10
29539;DHT22;16482;51.046;4.498;2023-03-23T17:31:09;24.00;40.00
29539;DHT22;16482;51.046;4.498;2023-03-23T17:33:42;24.00;40.10
29539;DHT22;16482;51.046;4.498;2023-03-23T17:36:08;24.00;40.00
29539;DHT22;16482;51.046;4.498;2023-03-23T17:38:42;24.00;40.00
29539;DHT22;16482;51.046;4.498;2023-03-23T17:41:08;24.00;40.00
29539;DHT22;16482;51.046;4.498;2023-03-23T17:43:36;24.00;40.00
29539;DHT22;16482;51.046;4.498;2023-03-23T17:46:08;24.00;40.00
29539;DHT22;16482;51.046;4.498;2023-03-23T17:48:37;24.00;40.00
29539;DHT22;16482;51.046;4.498;2023-03-23T17:51:12;24.00;39.90
29539;DHT22;16482;51.046;4.498;2023-03-23T17:53:38;24.00;39.80
29539;DHT22;16482;51.046;4.498;2023-03-23T17:56:12;24.00;39.90
29539;DHT22;16482;51.046;4.498;2023-03-23T17:58:38;24.00;39.90
29539;DHT22;16482;51.046;4.498;2023-03-23T18:01:11;24.00;39.90
29539;DHT22;16482;51.046;4.498;2023-03-23T18:03:37;24.00;39.80
29539;DHT22;16482;51.046;4.498;2023-03-23T18:06:13;24.00;39.80